createdAt,value
2018-11-29T00:00:26.084Z,25.20
2018-11-29T00:02:55.016Z,24.60
2018-11-29T00:05:40.209Z,25.57
2018-11-29T00:08:14.823Z,25.43
2018-11-29T00:10:43.721Z,25.37
2018-11-29T00:13:12.584Z,26.83
2018-11-29T00:15:41.490Z,24.57
2018-11-29T00:18:10.424Z,26.03
2018-11-29T00:20:39.295Z,25.60
2018-11-29T00:23:08.232Z,24.37
2018-11-29T00:25:37.097Z,23.90
2018-11-29T00:28:06.493Z,25.47
2018-11-29T00:30:35.364Z,23.50
2018-11-29T00:33:04.296Z,25.63
2018-11-29T00:35:33.182Z,23.83
2018-11-29T00:38:02.065Z,25.13
2018-11-29T00:40:30.934Z,24.03
2018-11-29T00:42:59.832Z,22.30
2018-11-29T00:45:28.732Z,24.90
2018-11-29T00:47:57.597Z,24.40
2018-11-29T00:50:26.572Z,27.27
2018-11-29T00:52:55.449Z,22.83
2018-11-29T00:55:24.435Z,23.90
2018-11-29T00:57:53.323Z,25.13
2018-11-29T01:00:23.054Z,25.03
2018-11-29T01:02:52.038Z,23.73
2018-11-29T01:05:20.958Z,24.90
2018-11-29T01:07:49.896Z,24.17
2018-11-29T01:10:19.226Z,25.00
2018-11-29T01:12:48.626Z,24.37
2018-11-29T01:15:18.368Z,24.20
2018-11-29T01:17:48.036Z,23.63
2018-11-29T01:20:18.113Z,23.00
2018-11-29T01:22:47.004Z,24.17
2018-11-29T01:25:16.277Z,24.70
2018-11-29T01:27:46.254Z,21.87
2018-11-29T01:30:16.101Z,23.07
2018-11-29T01:32:44.984Z,24.47
2018-11-29T01:35:17.633Z,22.43
2018-11-29T01:37:46.513Z,23.83
2018-11-29T01:40:20.169Z,21.57
2018-11-29T01:42:50.353Z,21.70
2018-11-29T01:45:19.260Z,23.57
2018-11-29T01:47:48.167Z,22.93
2018-11-29T01:50:17.053Z,21.90
2018-11-29T01:52:45.961Z,22.63
2018-11-29T01:55:14.864Z,23.40
2018-11-29T01:57:43.760Z,23.47
2018-11-29T02:00:15.017Z,22.20
2018-11-29T02:02:44.969Z,23.10
2018-11-29T02:05:13.835Z,21.83
2018-11-29T02:07:42.766Z,24.13
2018-11-29T02:10:18.668Z,23.63
2018-11-29T02:12:47.573Z,22.60
2018-11-29T02:15:16.481Z,23.17
2018-11-29T02:17:45.368Z,25.17
2018-11-29T02:20:15.384Z,20.90
2018-11-29T02:22:44.308Z,21.43
2018-11-29T02:25:13.276Z,25.27
2018-11-29T02:27:42.220Z,25.83
2018-11-29T02:30:15.641Z,23.80
2018-11-29T02:32:44.544Z,25.37
2018-11-29T02:35:13.449Z,24.47
2018-11-29T02:37:42.344Z,21.83
2018-11-29T02:40:12.356Z,24.00
2018-11-29T02:42:41.445Z,20.77
2018-11-29T02:45:18.492Z,22.60
2018-11-29T02:47:47.297Z,19.90
2018-11-29T02:50:16.194Z,21.87
2018-11-29T02:52:45.083Z,22.57
2018-11-29T02:55:13.999Z,22.83
2018-11-29T02:57:42.886Z,22.13
2018-11-29T03:00:16.401Z,22.20
2018-11-29T03:02:45.317Z,20.73
2018-11-29T03:05:14.508Z,22.73
2018-11-29T03:07:43.387Z,23.13
2018-11-29T03:10:13.173Z,21.63
2018-11-29T03:12:42.400Z,22.20
2018-11-29T03:15:12.277Z,23.30
2018-11-29T03:17:41.241Z,20.90
2018-11-29T03:20:11.192Z,20.23
2018-11-29T03:22:40.105Z,22.57
2018-11-29T03:25:11.138Z,22.50
2018-11-29T03:27:40.034Z,20.37
2018-11-29T03:30:11.042Z,20.07
2018-11-29T03:32:39.969Z,20.57
2018-11-29T03:35:09.849Z,20.57
2018-11-29T03:37:38.793Z,20.07
2018-11-29T03:40:09.316Z,20.00
2018-11-29T03:42:38.197Z,21.30
2018-11-29T03:45:08.908Z,22.67
2018-11-29T03:47:38.065Z,20.67
2018-11-29T03:50:14.676Z,22.23
2018-11-29T03:52:43.552Z,22.43
2018-11-29T03:55:12.452Z,21.10
2018-11-29T03:57:41.413Z,21.60
2018-11-29T04:00:17.560Z,21.17
2018-11-29T04:02:47.351Z,20.43
2018-11-29T04:05:16.303Z,24.07
2018-11-29T04:07:45.202Z,18.20
2018-11-29T04:10:15.121Z,20.07
2018-11-29T04:12:44.026Z,21.37
2018-11-29T04:15:13.970Z,21.47
2018-11-29T04:17:42.925Z,24.33
2018-11-29T04:20:13.934Z,24.80
2018-11-29T04:22:42.873Z,24.97
2018-11-29T04:25:12.637Z,27.63
2018-11-29T04:27:41.589Z,21.60
2018-11-29T04:30:14.220Z,23.73
2018-11-29T04:32:43.161Z,22.43
2018-11-29T04:35:12.543Z,24.00
2018-11-29T04:37:41.455Z,25.23
2018-11-29T04:40:17.377Z,22.77
2018-11-29T04:42:46.301Z,22.03
2018-11-29T04:45:16.149Z,23.83
2018-11-29T04:47:45.300Z,23.13
2018-11-29T04:50:14.838Z,23.83
2018-11-29T04:52:43.747Z,24.37
2018-11-29T04:55:12.666Z,22.80
2018-11-29T04:57:41.575Z,23.43
2018-11-29T05:00:12.796Z,26.03
2018-11-29T05:02:41.782Z,27.30
2018-11-29T05:05:11.448Z,23.50
2018-11-29T05:07:40.388Z,20.83
2018-11-29T05:10:10.596Z,22.47
2018-11-29T05:12:39.469Z,25.57
2018-11-29T05:15:09.912Z,24.00
2018-11-29T05:17:38.806Z,32.53
2018-11-29T05:20:07.857Z,29.03
2018-11-29T05:22:36.783Z,28.80
2018-11-29T05:25:06.682Z,33.93
2018-11-29T05:27:35.782Z,29.67
2018-11-29T05:30:07.329Z,30.27
2018-11-29T05:32:36.224Z,27.60
2018-11-29T05:35:06.429Z,34.00
2018-11-29T05:37:35.735Z,30.00
2018-11-29T05:40:04.625Z,31.70
2018-11-29T05:42:33.506Z,28.23
2018-11-29T05:45:02.417Z,33.02
2018-11-29T05:47:34.880Z,27.67
2018-11-29T05:50:04.228Z,34.20
2018-11-29T05:52:33.252Z,26.53
2018-11-29T05:55:02.203Z,26.43
2018-11-29T05:57:31.312Z,30.73
2018-11-29T06:00:00.288Z,38.33
2018-11-29T06:02:29.815Z,30.97
2018-11-29T06:04:59.081Z,43.95
2018-11-29T06:07:28.081Z,28.27
2018-11-29T06:09:57.049Z,29.77
2018-11-29T06:12:26.028Z,23.87
2018-11-29T06:14:54.929Z,32.87
2018-11-29T06:17:23.839Z,36.20
2018-11-29T06:19:52.713Z,25.63
2018-11-29T06:22:21.621Z,32.40
2018-11-29T06:24:50.545Z,24.80
2018-11-29T06:27:19.430Z,23.70
2018-11-29T06:29:48.312Z,32.77
2018-11-29T06:32:17.257Z,22.33
2018-11-29T06:34:46.169Z,25.47
2018-11-29T06:37:15.112Z,23.50
2018-11-29T06:39:44.030Z,34.30
2018-11-29T06:42:12.910Z,21.67
2018-11-29T06:44:41.844Z,24.60
2018-11-29T06:47:10.799Z,22.97
2018-11-29T06:49:39.698Z,29.80
2018-11-29T06:52:08.585Z,31.03
2018-11-29T06:54:37.550Z,36.97
2018-11-29T06:57:06.477Z,31.42
2018-11-29T06:59:35.373Z,33.90
2018-11-29T07:02:04.598Z,29.40
2018-11-29T07:04:33.491Z,29.37
2018-11-29T07:07:02.384Z,31.80
2018-11-29T07:09:31.264Z,26.27
2018-11-29T07:12:00.150Z,22.93
2018-11-29T07:14:29.040Z,31.37
2018-11-29T07:16:57.944Z,22.60
2018-11-29T07:19:26.837Z,33.93
2018-11-29T07:21:55.951Z,24.57
2018-11-29T07:24:25.254Z,37.67
2018-11-29T07:26:54.130Z,32.53
2018-11-29T07:29:23.061Z,32.00
2018-11-29T07:31:51.942Z,24.20
2018-11-29T07:34:20.824Z,26.13
2018-11-29T07:36:49.702Z,34.03
2018-11-29T07:39:18.580Z,36.37
2018-11-29T07:41:47.502Z,28.23
2018-11-29T07:44:16.388Z,34.53
2018-11-29T07:46:45.304Z,32.63
2018-11-29T07:49:14.205Z,32.63
2018-11-29T07:51:43.129Z,40.17
2018-11-29T07:54:12.076Z,30.33
2018-11-29T07:56:40.973Z,34.47
2018-11-29T07:59:09.892Z,35.77
2018-11-29T08:01:38.805Z,40.13
2018-11-29T08:04:07.717Z,33.43
2018-11-29T08:06:36.596Z,43.57
2018-11-29T08:09:06.993Z,44.17
2018-11-29T08:11:35.902Z,34.20
2018-11-29T08:14:04.847Z,35.60
2018-11-29T08:16:33.710Z,40.40
2018-11-29T08:19:02.618Z,31.83
2018-11-29T08:21:31.513Z,28.17
2018-11-29T08:24:00.462Z,31.23
2018-11-29T08:26:29.405Z,28.37
2018-11-29T08:28:58.308Z,32.87
2018-11-29T08:31:27.224Z,30.67
2018-11-29T08:33:56.102Z,40.53
2018-11-29T08:36:24.994Z,39.97
2018-11-29T08:38:54.123Z,35.80
2018-11-29T08:41:23.000Z,33.30
2018-11-29T08:43:51.871Z,33.53
2018-11-29T08:46:20.751Z,42.83
2018-11-29T08:48:49.629Z,33.97
2018-11-29T08:51:18.517Z,37.87
2018-11-29T08:53:47.386Z,34.87
2018-11-29T08:56:16.285Z,36.37
2018-11-29T08:58:45.172Z,36.93
2018-11-29T09:01:14.133Z,38.60
2018-11-29T09:03:43.021Z,41.30
2018-11-29T09:06:11.973Z,36.90
2018-11-29T09:08:40.873Z,39.50
2018-11-29T09:11:09.762Z,39.57
2018-11-29T09:13:38.700Z,42.57
2018-11-29T09:16:07.604Z,39.73
2018-11-29T09:18:36.593Z,40.77
2018-11-29T09:21:05.725Z,35.08
2018-11-29T09:23:34.606Z,38.87
2018-11-29T09:26:03.488Z,40.30
2018-11-29T09:28:32.397Z,41.77
2018-11-29T09:31:01.318Z,39.00
2018-11-29T09:33:30.197Z,44.83
2018-11-29T09:35:59.116Z,36.83
2018-11-29T09:38:28.065Z,36.70
2018-11-29T09:40:56.960Z,38.60
2018-11-29T09:43:25.874Z,38.60
2018-11-29T09:45:54.797Z,37.13
2018-11-29T09:48:23.680Z,35.90
2018-11-29T09:50:52.545Z,33.80
2018-11-29T09:53:21.448Z,35.40
2018-11-29T09:55:50.308Z,35.37
2018-11-29T09:58:19.238Z,39.80
2018-11-29T10:00:48.144Z,37.00
2018-11-29T10:03:17.325Z,38.60
2018-11-29T10:05:46.837Z,33.30
2018-11-29T10:08:16.863Z,36.53
2018-11-29T10:10:45.769Z,39.17
2018-11-29T10:13:14.682Z,36.50
2018-11-29T10:15:43.614Z,36.27
2018-11-29T10:18:12.484Z,45.93
2018-11-29T10:20:41.400Z,45.30
2018-11-29T10:23:10.328Z,43.57
2018-11-29T10:25:40.542Z,45.63
2018-11-29T10:28:11.028Z,44.60
2018-11-29T10:30:42.818Z,42.47
2018-11-29T10:33:11.761Z,47.77
2018-11-29T10:35:40.657Z,47.37
2018-11-29T10:38:09.561Z,46.77
2018-11-29T10:40:38.457Z,46.00
2018-11-29T10:43:07.328Z,49.33
2018-11-29T10:45:36.243Z,52.33
2018-11-29T10:48:07.192Z,49.63
2018-11-29T10:50:36.285Z,53.17
2018-11-29T10:53:05.793Z,48.77
2018-11-29T10:55:34.665Z,45.67
2018-11-29T10:58:03.570Z,45.47
2018-11-29T11:00:38.697Z,47.07
2018-11-29T11:03:13.265Z,44.70
2018-11-29T11:05:42.180Z,41.77
2018-11-29T11:08:11.100Z,47.57
2018-11-29T11:10:40.443Z,45.63
2018-11-29T11:13:09.349Z,46.73
2018-11-29T11:15:38.714Z,46.10
2018-11-29T11:18:08.850Z,45.57
2018-11-29T11:20:37.742Z,45.57
2018-11-29T11:23:06.696Z,41.53
2018-11-29T11:25:35.641Z,42.77
2018-11-29T11:28:05.942Z,46.63
2018-11-29T11:30:35.274Z,42.73
2018-11-29T11:33:04.237Z,41.85
2018-11-29T11:35:33.292Z,39.03
2018-11-29T11:38:02.200Z,41.37
2018-11-29T11:40:31.133Z,39.83
2018-11-29T11:43:00.012Z,37.63
2018-11-29T11:45:28.905Z,35.33
2018-11-29T11:48:03.134Z,32.87
2018-11-29T11:50:26.721Z,33.80
2018-11-29T11:52:56.030Z,29.63
2018-11-29T11:55:29.897Z,30.33
2018-11-29T11:57:53.922Z,30.90
2018-11-29T12:00:25.638Z,26.43
2018-11-29T12:02:56.080Z,26.50
2018-11-29T12:05:25.037Z,26.43
2018-11-29T12:07:53.985Z,26.00
2018-11-29T12:10:22.925Z,24.93
2018-11-29T12:12:52.627Z,24.20
2018-11-29T12:15:21.545Z,23.30
2018-11-29T12:17:50.462Z,25.43
2018-11-29T12:20:20.112Z,23.87
2018-11-29T12:22:49.160Z,24.27
2018-11-29T12:25:19.506Z,21.53
2018-11-29T12:27:48.474Z,24.80
2018-11-29T12:30:38.118Z,24.73
2018-11-29T12:33:08.362Z,23.83
2018-11-29T12:35:37.269Z,24.00
2018-11-29T12:38:06.414Z,23.67
2018-11-29T12:40:35.314Z,24.57
2018-11-29T12:43:04.302Z,24.67
2018-11-29T12:45:33.183Z,25.03
2018-11-29T12:48:02.110Z,25.23
2018-11-29T12:50:31.120Z,26.90
2018-11-29T12:53:00.009Z,27.60
2018-11-29T12:55:28.929Z,25.50
2018-11-29T12:58:05.513Z,24.43
2018-11-29T13:00:26.782Z,24.00
2018-11-29T13:02:56.849Z,23.57
2018-11-29T13:05:26.511Z,25.07
2018-11-29T13:07:55.519Z,23.20
2018-11-29T13:10:25.565Z,23.47
2018-11-29T13:12:54.869Z,23.47
2018-11-29T13:15:29.896Z,23.37
2018-11-29T13:17:59.863Z,24.80
2018-11-29T13:20:32.485Z,25.90
2018-11-29T13:22:57.701Z,25.63
2018-11-29T13:25:27.725Z,25.17
2018-11-29T13:27:56.694Z,26.50
2018-11-29T13:30:25.742Z,25.50
2018-11-29T13:32:56.484Z,26.33
2018-11-29T13:35:32.814Z,25.73
2018-11-29T13:38:09.578Z,25.13
2018-11-29T13:40:38.509Z,25.90
2018-11-29T13:43:07.407Z,25.87
2018-11-29T13:45:36.294Z,27.27
2018-11-29T13:48:06.107Z,26.27
2018-11-29T13:50:35.168Z,26.43
2018-11-29T13:53:04.031Z,25.40
2018-11-29T13:55:33.000Z,25.17
2018-11-29T13:58:02.041Z,24.73
2018-11-29T14:00:30.967Z,23.07
2018-11-29T14:03:01.644Z,24.43
2018-11-29T14:05:30.535Z,22.57
2018-11-29T14:07:59.460Z,22.43
2018-11-29T14:10:28.390Z,22.03
2018-11-29T14:12:57.280Z,22.00
2018-11-29T14:15:28.797Z,22.87
2018-11-29T14:17:57.660Z,22.20
2018-11-29T14:20:26.669Z,22.27
2018-11-29T14:22:55.639Z,21.23
2018-11-29T14:25:24.529Z,20.00
2018-11-29T14:27:54.867Z,20.67
2018-11-29T14:30:26.317Z,21.47
2018-11-29T14:32:57.495Z,22.87
2018-11-29T14:35:26.437Z,25.43
2018-11-29T14:37:55.369Z,22.57
2018-11-29T14:40:26.400Z,20.97
2018-11-29T14:42:55.408Z,21.67
2018-11-29T14:45:25.433Z,21.80
2018-11-29T14:47:54.626Z,22.03
2018-11-29T14:52:56.596Z,19.90
2018-11-29T14:55:25.447Z,20.07
2018-11-29T14:57:54.345Z,21.77
2018-11-29T15:00:23.240Z,21.77
2018-11-29T15:02:53.624Z,19.07
2018-11-29T15:05:24.864Z,21.17
2018-11-29T15:07:53.818Z,21.77
2018-11-29T15:10:22.752Z,22.80
2018-11-29T15:12:51.713Z,23.90
2018-11-29T15:15:20.604Z,28.50
2018-11-29T15:17:50.518Z,30.53
2018-11-29T15:20:22.937Z,31.50
2018-11-29T15:22:52.827Z,31.03
2018-11-29T15:25:21.693Z,32.33
2018-11-29T15:27:50.598Z,32.07
2018-11-29T15:30:21.493Z,29.80
2018-11-29T15:32:50.453Z,31.23
2018-11-29T15:35:19.468Z,30.80
2018-11-29T15:37:48.384Z,31.27
2018-11-29T15:40:17.878Z,30.17
2018-11-29T15:42:46.939Z,29.90
2018-11-29T15:45:18.966Z,28.93
2018-11-29T15:47:47.965Z,27.60
2018-11-29T15:50:17.068Z,26.57
2018-11-29T15:52:46.033Z,27.17
2018-11-29T15:55:18.817Z,28.17
2018-11-29T15:57:48.726Z,26.23
2018-11-29T16:00:19.737Z,26.53
2018-11-29T16:02:48.935Z,25.00
2018-11-29T16:05:17.880Z,27.00
2018-11-29T16:07:46.787Z,25.20
2018-11-29T16:10:16.913Z,24.53
2018-11-29T16:12:46.551Z,22.67
2018-11-29T16:15:16.389Z,25.50
2018-11-29T16:17:45.820Z,24.77
2018-11-29T16:20:22.207Z,22.73
2018-11-29T16:22:51.192Z,22.57
2018-11-29T16:25:20.234Z,23.03
2018-11-29T16:27:49.145Z,25.00
2018-11-29T16:30:55.999Z,22.20
2018-11-29T16:33:26.702Z,21.43
2018-11-29T16:35:56.385Z,23.20
2018-11-29T16:38:25.696Z,21.90
2018-11-29T16:40:54.601Z,22.13
2018-11-29T16:43:23.543Z,25.03
2018-11-29T16:45:52.471Z,22.77
2018-11-29T16:48:21.416Z,23.00
2018-11-29T16:50:50.356Z,25.40
2018-11-29T16:53:19.252Z,25.57
2018-11-29T16:55:48.145Z,24.93
2018-11-29T16:58:19.825Z,26.17
2018-11-29T17:00:48.818Z,26.67
2018-11-29T17:03:17.724Z,24.57
2018-11-29T17:05:46.605Z,26.43
2018-11-29T17:08:15.567Z,26.03
2018-11-29T17:10:44.501Z,24.70
2018-11-29T17:13:15.940Z,26.63
2018-11-29T17:15:44.858Z,25.70
2018-11-29T17:18:13.774Z,25.47
2018-11-29T17:20:42.707Z,22.93
2018-11-29T17:23:12.517Z,23.83
2018-11-29T17:25:41.430Z,23.90
2018-11-29T17:28:10.354Z,24.80
2018-11-29T17:30:39.365Z,23.90
2018-11-29T17:33:09.075Z,25.63
2018-11-29T17:35:38.086Z,25.23
2018-11-29T17:38:07.069Z,23.07
2018-11-29T17:40:37.640Z,23.97
2018-11-29T17:43:07.660Z,24.17
2018-11-29T17:45:36.804Z,22.97
2018-11-29T17:48:09.986Z,26.50
2018-11-29T17:50:43.065Z,26.57
2018-11-29T17:53:11.949Z,23.87
2018-11-29T17:55:40.816Z,23.80
2018-11-29T17:58:13.125Z,25.07
2018-11-29T18:00:43.241Z,24.17
2018-11-29T18:03:13.155Z,26.13
2018-11-29T18:05:42.088Z,25.37
2018-11-29T18:08:10.992Z,24.83
2018-11-29T18:10:40.753Z,24.40
2018-11-29T18:13:42.621Z,23.83
2018-11-29T18:16:11.560Z,21.37
2018-11-29T18:18:41.061Z,23.47
2018-11-29T18:21:09.949Z,22.97
2018-11-29T18:23:38.849Z,26.57
2018-11-29T18:26:07.756Z,25.57
2018-11-29T18:28:36.666Z,23.60
2018-11-29T18:31:05.637Z,26.67
2018-11-29T18:33:34.521Z,24.03
2018-11-29T18:36:03.409Z,26.27
2018-11-29T18:38:32.338Z,23.30
2018-11-29T18:41:01.303Z,22.53
2018-11-29T18:43:30.160Z,26.30
2018-11-29T18:45:59.034Z,24.77
2018-11-29T18:48:27.907Z,24.33
2018-11-29T18:50:56.812Z,23.07
2018-11-29T18:53:25.836Z,23.10
2018-11-29T18:55:54.731Z,23.87
2018-11-29T18:58:23.621Z,24.40
2018-11-29T19:00:53.429Z,24.77
2018-11-29T19:03:22.307Z,23.80
2018-11-29T19:05:51.193Z,23.63
2018-11-29T19:08:20.065Z,22.27
2018-11-29T19:10:48.975Z,25.97
2018-11-29T19:13:17.854Z,23.50
2018-11-29T19:15:46.758Z,25.53
2018-11-29T19:18:15.641Z,24.73
2018-11-29T19:20:44.518Z,25.00
2018-11-29T19:23:13.392Z,26.63
2018-11-29T19:25:42.347Z,24.87
2018-11-29T19:28:11.220Z,24.30
